Hlavní strana
METAR-TAF:

METAR-TAF

Letiště :

Augsburg, Německo

zeměpisná šířka: 48-26N, zeměpisná délka: 010-56E, výška: 461 m

Aktuální stav počasí

Zpráva byla vytvořena před 11 minutami, v 07:50 UTC
Severovýchodní vítr 4 kt, proměnlivý mezi severním a východním
Teplota 18°C
Vlhkost vzduchu 83%
Tlak 1021 hPa
Viditelnost 10 km a více
Skoro jasno ve výšce 500 ft

METAR: EDMA 260750Z 04004KT 350V090 9999 FEW005 18/15 Q1021

Čas: 10:01 (08:01 UTC)


TAF: chybějící

Stav a předpovědi počasí z více než 4 000 letišť (zprávy METAR a TAF).

Červené a žluté tečky na mapě představují dostupné meteorologické stanice.

Když kurzor umístíte na tečku, zobrazí se název stanice.

Pak kliknutím zobrazíte stav a předpověď počasí.

Chcete-li změnit mapu, kliknutím na zelené tlačítko se znaménkem +mapu přiblížíte, kliknutím na zelené tlačítko se znaménkem – mapu oddálíte a kliknutím na zelené šipky přejdete na sousední mapy.


METAR-TAF: